Edenville, Ohio
Current Conditions -  °F | °C
As of 8:53 PM on Monday 24 Nov 2014 (Local Time) from KMNN Reporting Station
Overcast Overcast  
Wind Chill: 29°   Ceiling: 3400
Heat Index: 39°   Visibility: 10mi
Dew Point: 27°   Wind: 21mph
Humidity: 62%   Direction: 240°WSW
Pressure: 29.8"   Gusts: 39mph
Location:  40.8054°N, 83.1316°W
Report Text: KMNN 250153Z AUTO 24018G34KT 10SM OVC034 04/M03 A2980 RMK AO2 PK WND 24039/0104 SLP093 T00391028 TSNO
Loading
Personal Weather Stations






























Interactive Weather Map New forecast layout! Learn more

10-Day Weather Forecast

Advertisements
Track Severe Weather on mobile